sensor_id;sensor_type;location;lat;lon;timestamp;P1;durP1;ratioP1;P2;durP2;ratioP2
6987;SDS011;3534;49.960;8.018;2023-07-08T00:00:08;13.43;;;7.60;;
6987;SDS011;3534;49.960;8.018;2023-07-08T00:02:37;13.77;;;7.90;;
6987;SDS011;3534;49.960;8.018;2023-07-08T00:05:06;17.60;;;8.57;;
6987;SDS011;3534;49.960;8.018;2023-07-08T00:07:35;12.87;;;7.63;;
6987;SDS011;3534;49.960;8.018;2023-07-08T00:10:07;14.17;;;8.33;;
6987;SDS011;3534;49.960;8.018;2023-07-08T00:12:39;17.87;;;8.70;;
6987;SDS011;3534;49.960;8.018;2023-07-08T00:15:06;13.27;;;9.00;;
6987;SDS011;3534;49.960;8.018;2023-07-08T00:17:34;12.83;;;8.53;;
6987;SDS011;3534;49.960;8.018;2023-07-08T00:20:04;15.10;;;8.60;;
6987;SDS011;3534;49.960;8.018;2023-07-08T00:22:38;16.50;;;8.17;;
6987;SDS011;3534;49.960;8.018;2023-07-08T00:25:06;14.03;;;8.33;;
6987;SDS011;3534;49.960;8.018;2023-07-08T00:27:33;12.07;;;8.10;;
6987;SDS011;3534;49.960;8.018;2023-07-08T00:30:00;14.40;;;7.60;;
6987;SDS011;3534;49.960;8.018;2023-07-08T00:32:27;12.60;;;7.90;;
6987;SDS011;3534;49.960;8.018;2023-07-08T00:34:54;19.60;;;9.10;;
6987;SDS011;3534;49.960;8.018;2023-07-08T00:37:21;16.37;;;8.00;;
6987;SDS011;3534;49.960;8.018;2023-07-08T00:39:50;12.90;;;8.03;;
6987;SDS011;3534;49.960;8.018;2023-07-08T00:42:18;16.13;;;8.87;;
6987;SDS011;3534;49.960;8.018;2023-07-08T00:44:48;11.57;;;8.13;;
6987;SDS011;3534;49.960;8.018;2023-07-08T00:47:15;11.33;;;8.03;;
6987;SDS011;3534;49.960;8.018;2023-07-08T00:49:43;13.53;;;7.90;;
6987;SDS011;3534;49.960;8.018;2023-07-08T00:52:23;15.67;;;8.50;;
6987;SDS011;3534;49.960;8.018;2023-07-08T00:54:53;13.27;;;8.17;;
6987;SDS011;3534;49.960;8.018;2023-07-08T00:59:51;10.87;;;7.03;;
6987;SDS011;3534;49.960;8.018;2023-07-08T01:02:23;12.27;;;7.57;;
6987;SDS011;3534;49.960;8.018;2023-07-08T01:04:56;13.47;;;8.50;;
6987;SDS011;3534;49.960;8.018;2023-07-08T01:07:32;14.87;;;8.33;;
6987;SDS011;3534;49.960;8.018;2023-07-08T01:10:03;9.37;;;6.90;;
6987;SDS011;3534;49.960;8.018;2023-07-08T01:12:33;14.43;;;8.00;;
6987;SDS011;3534;49.960;8.018;2023-07-08T01:15:05;18.90;;;8.97;;
6987;SDS011;3534;49.960;8.018;2023-07-08T01:17:34;13.93;;;8.60;;
6987;SDS011;3534;49.960;8.018;2023-07-08T01:20:02;13.10;;;8.23;;
6987;SDS011;3534;49.960;8.018;2023-07-08T01:22:33;11.53;;;7.77;;
6987;SDS011;3534;49.960;8.018;2023-07-08T01:25:01;14.03;;;9.27;;
6987;SDS011;3534;49.960;8.018;2023-07-08T01:27:29;12.97;;;9.27;;
6987;SDS011;3534;49.960;8.018;2023-07-08T01:29:58;13.33;;;8.60;;
6987;SDS011;3534;49.960;8.018;2023-07-08T01:32:25;13.77;;;8.50;;
6987;SDS011;3534;49.960;8.018;2023-07-08T01:34:52;18.50;;;7.70;;
6987;SDS011;3534;49.960;8.018;2023-07-08T01:37:27;13.97;;;7.87;;
6987;SDS011;3534;49.960;8.018;2023-07-08T01:39:58;12.90;;;7.63;;
6987;SDS011;3534;49.960;8.018;2023-07-08T01:42:47;12.97;;;8.60;;
6987;SDS011;3534;49.960;8.018;2023-07-08T01:45:14;12.83;;;7.93;;
6987;SDS011;3534;49.960;8.018;2023-07-08T01:47:43;11.47;;;8.53;;
6987;SDS011;3534;49.960;8.018;2023-07-08T01:50:14;11.60;;;7.80;;
6987;SDS011;3534;49.960;8.018;2023-07-08T01:52:41;11.90;;;8.47;;
6987;SDS011;3534;49.960;8.018;2023-07-08T01:55:09;14.73;;;8.10;;
6987;SDS011;3534;49.960;8.018;2023-07-08T01:57:36;13.93;;;8.10;;
6987;SDS011;3534;49.960;8.018;2023-07-08T02:00:03;11.13;;;7.53;;
6987;SDS011;3534;49.960;8.018;2023-07-08T02:02:31;11.50;;;8.00;;
6987;SDS011;3534;49.960;8.018;2023-07-08T02:04:57;12.10;;;7.47;;
6987;SDS011;3534;49.960;8.018;2023-07-08T02:07:24;14.87;;;7.50;;
6987;SDS011;3534;49.960;8.018;2023-07-08T02:09:51;12.53;;;8.40;;
6987;SDS011;3534;49.960;8.018;2023-07-08T02:12:19;12.97;;;7.87;;
6987;SDS011;3534;49.960;8.018;2023-07-08T02:14:45;22.03;;;8.67;;
6987;SDS011;3534;49.960;8.018;2023-07-08T02:17:12;13.20;;;7.43;;
6987;SDS011;3534;49.960;8.018;2023-07-08T02:19:41;14.27;;;8.10;;
6987;SDS011;3534;49.960;8.018;2023-07-08T02:22:08;12.87;;;8.30;;
6987;SDS011;3534;49.960;8.018;2023-07-08T02:24:35;20.33;;;8.00;;
6987;SDS011;3534;49.960;8.018;2023-07-08T02:27:02;11.57;;;7.93;;
6987;SDS011;3534;49.960;8.018;2023-07-08T02:29:31;17.90;;;8.33;;
6987;SDS011;3534;49.960;8.018;2023-07-08T02:31:58;13.47;;;7.90;;
6987;SDS011;3534;49.960;8.018;2023-07-08T02:34:24;12.87;;;7.43;;
6987;SDS011;3534;49.960;8.018;2023-07-08T02:36:51;12.83;;;7.30;;
6987;SDS011;3534;49.960;8.018;2023-07-08T02:39:18;12.30;;;8.23;;
6987;SDS011;3534;49.960;8.018;2023-07-08T02:41:44;17.03;;;8.10;;
6987;SDS011;3534;49.960;8.018;2023-07-08T02:44:11;14.23;;;8.90;;
6987;SDS011;3534;49.960;8.018;2023-07-08T02:46:39;15.77;;;9.13;;
6987;SDS011;3534;49.960;8.018;2023-07-08T02:49:06;11.90;;;7.50;;
6987;SDS011;3534;49.960;8.018;2023-07-08T02:51:32;14.77;;;7.90;;
6987;SDS011;3534;49.960;8.018;2023-07-08T02:53:59;19.33;;;9.10;;
6987;SDS011;3534;49.960;8.018;2023-07-08T02:56:26;13.03;;;7.73;;
6987;SDS011;3534;49.960;8.018;2023-07-08T02:58:53;11.87;;;8.03;;
6987;SDS011;3534;49.960;8.018;2023-07-08T03:01:20;11.27;;;7.20;;
6987;SDS011;3534;49.960;8.018;2023-07-08T03:03:48;10.37;;;5.87;;
6987;SDS011;3534;49.960;8.018;2023-07-08T03:06:15;14.70;;;6.20;;
6987;SDS011;3534;49.960;8.018;2023-07-08T03:08:42;14.10;;;7.80;;
6987;SDS011;3534;49.960;8.018;2023-07-08T03:11:08;12.03;;;7.40;;
6987;SDS011;3534;49.960;8.018;2023-07-08T03:13:35;12.67;;;8.33;;
6987;SDS011;3534;49.960;8.018;2023-07-08T03:16:02;13.70;;;8.10;;
6987;SDS011;3534;49.960;8.018;2023-07-08T03:18:37;13.17;;;8.50;;
6987;SDS011;3534;49.960;8.018;2023-07-08T03:21:12;13.97;;;8.27;;
6987;SDS011;3534;49.960;8.018;2023-07-08T03:23:40;13.60;;;7.90;;
6987;SDS011;3534;49.960;8.018;2023-07-08T03:26:07;16.43;;;8.23;;
6987;SDS011;3534;49.960;8.018;2023-07-08T03:28:38;12.90;;;7.77;;
6987;SDS011;3534;49.960;8.018;2023-07-08T03:31:07;15.47;;;8.50;;
6987;SDS011;3534;49.960;8.018;2023-07-08T03:33:34;10.33;;;7.43;;
6987;SDS011;3534;49.960;8.018;2023-07-08T03:36:01;12.90;;;8.00;;
6987;SDS011;3534;49.960;8.018;2023-07-08T03:38:29;15.30;;;8.50;;
6987;SDS011;3534;49.960;8.018;2023-07-08T03:40:56;18.10;;;8.63;;
6987;SDS011;3534;49.960;8.018;2023-07-08T03:43:23;13.40;;;7.87;;
6987;SDS011;3534;49.960;8.018;2023-07-08T03:45:49;14.00;;;7.83;;
6987;SDS011;3534;49.960;8.018;2023-07-08T03:48:16;15.70;;;8.20;;
6987;SDS011;3534;49.960;8.018;2023-07-08T03:50:43;16.23;;;8.33;;
6987;SDS011;3534;49.960;8.018;2023-07-08T03:53:10;12.00;;;7.40;;
6987;SDS011;3534;49.960;8.018;2023-07-08T03:55:38;13.73;;;8.17;;
6987;SDS011;3534;49.960;8.018;2023-07-08T03:58:05;15.43;;;8.70;;
6987;SDS011;3534;49.960;8.018;2023-07-08T04:00:31;15.03;;;8.10;;
6987;SDS011;3534;49.960;8.018;2023-07-08T04:02:58;17.50;;;11.40;;
6987;SDS011;3534;49.960;8.018;2023-07-08T04:05:25;14.90;;;8.97;;
6987;SDS011;3534;49.960;8.018;2023-07-08T04:07:52;16.53;;;8.97;;
6987;SDS011;3534;49.960;8.018;2023-07-08T04:10:19;14.40;;;8.10;;
6987;SDS011;3534;49.960;8.018;2023-07-08T04:12:47;15.37;;;8.50;;
6987;SDS011;3534;49.960;8.018;2023-07-08T04:15:14;16.67;;;8.47;;
6987;SDS011;3534;49.960;8.018;2023-07-08T04:17:41;13.53;;;8.20;;
6987;SDS011;3534;49.960;8.018;2023-07-08T04:20:11;12.30;;;6.87;;
6987;SDS011;3534;49.960;8.018;2023-07-08T04:22:40;12.73;;;8.30;;
6987;SDS011;3534;49.960;8.018;2023-07-08T04:25:07;11.90;;;7.17;;
6987;SDS011;3534;49.960;8.018;2023-07-08T04:27:36;12.73;;;7.90;;
6987;SDS011;3534;49.960;8.018;2023-07-08T04:30:04;12.40;;;8.17;;
6987;SDS011;3534;49.960;8.018;2023-07-08T04:32:32;10.90;;;7.83;;
6987;SDS011;3534;49.960;8.018;2023-07-08T04:34:59;14.43;;;7.67;;
6987;SDS011;3534;49.960;8.018;2023-07-08T04:37:26;13.30;;;8.83;;
6987;SDS011;3534;49.960;8.018;2023-07-08T04:39:53;12.70;;;8.10;;
6987;SDS011;3534;49.960;8.018;2023-07-08T04:42:19;12.00;;;7.60;;
6987;SDS011;3534;49.960;8.018;2023-07-08T04:44:46;11.33;;;7.37;;
6987;SDS011;3534;49.960;8.018;2023-07-08T04:47:15;14.47;;;6.63;;
6987;SDS011;3534;49.960;8.018;2023-07-08T04:49:45;9.30;;;5.70;;
6987;SDS011;3534;49.960;8.018;2023-07-08T04:52:12;10.17;;;7.07;;
6987;SDS011;3534;49.960;8.018;2023-07-08T04:54:38;9.13;;;6.33;;
6987;SDS011;3534;49.960;8.018;2023-07-08T04:57:05;7.40;;;5.40;;
6987;SDS011;3534;49.960;8.018;2023-07-08T04:59:33;10.00;;;5.47;;
6987;SDS011;3534;49.960;8.018;2023-07-08T05:02:00;8.13;;;5.47;;
6987;SDS011;3534;49.960;8.018;2023-07-08T05:04:28;8.50;;;6.00;;
6987;SDS011;3534;49.960;8.018;2023-07-08T05:06:55;11.23;;;5.83;;
6987;SDS011;3534;49.960;8.018;2023-07-08T05:09:21;9.93;;;5.83;;
6987;SDS011;3534;49.960;8.018;2023-07-08T05:11:51;9.77;;;5.70;;
6987;SDS011;3534;49.960;8.018;2023-07-08T05:14:18;12.83;;;5.77;;
6987;SDS011;3534;49.960;8.018;2023-07-08T05:16:44;8.07;;;4.80;;
6987;SDS011;3534;49.960;8.018;2023-07-08T05:19:11;10.00;;;5.80;;
6987;SDS011;3534;49.960;8.018;2023-07-08T05:21:39;13.50;;;5.97;;
6987;SDS011;3534;49.960;8.018;2023-07-08T05:24:06;8.83;;;5.37;;
6987;SDS011;3534;49.960;8.018;2023-07-08T05:26:33;6.87;;;4.97;;
6987;SDS011;3534;49.960;8.018;2023-07-08T05:29:00;7.00;;;5.00;;
6987;SDS011;3534;49.960;8.018;2023-07-08T05:31:27;7.43;;;4.60;;
6987;SDS011;3534;49.960;8.018;2023-07-08T05:33:54;8.20;;;5.53;;
6987;SDS011;3534;49.960;8.018;2023-07-08T05:36:21;8.83;;;5.20;;
6987;SDS011;3534;49.960;8.018;2023-07-08T05:38:49;6.87;;;5.30;;
6987;SDS011;3534;49.960;8.018;2023-07-08T05:41:15;6.93;;;4.37;;
6987;SDS011;3534;49.960;8.018;2023-07-08T05:43:42;6.77;;;4.77;;
6987;SDS011;3534;49.960;8.018;2023-07-08T05:46:09;9.73;;;5.53;;
6987;SDS011;3534;49.960;8.018;2023-07-08T05:48:35;8.20;;;5.07;;
6987;SDS011;3534;49.960;8.018;2023-07-08T05:51:02;12.90;;;6.00;;
6987;SDS011;3534;49.960;8.018;2023-07-08T05:53:29;17.67;;;6.90;;
6987;SDS011;3534;49.960;8.018;2023-07-08T05:55:57;12.17;;;7.27;;
6987;SDS011;3534;49.960;8.018;2023-07-08T05:58:24;13.83;;;7.60;;
6987;SDS011;3534;49.960;8.018;2023-07-08T06:00:54;12.27;;;8.07;;
6987;SDS011;3534;49.960;8.018;2023-07-08T06:03:21;13.27;;;7.90;;
6987;SDS011;3534;49.960;8.018;2023-07-08T06:05:48;21.13;;;7.53;;
6987;SDS011;3534;49.960;8.018;2023-07-08T06:08:15;17.30;;;7.80;;
6987;SDS011;3534;49.960;8.018;2023-07-08T06:10:42;16.47;;;9.13;;
6987;SDS011;3534;49.960;8.018;2023-07-08T06:13:11;17.53;;;7.70;;
6987;SDS011;3534;49.960;8.018;2023-07-08T06:15:38;12.50;;;8.30;;
6987;SDS011;3534;49.960;8.018;2023-07-08T06:18:05;11.57;;;7.70;;
6987;SDS011;3534;49.960;8.018;2023-07-08T06:20:32;14.57;;;9.23;;
6987;SDS011;3534;49.960;8.018;2023-07-08T06:22:59;13.70;;;8.00;;
6987;SDS011;3534;49.960;8.018;2023-07-08T06:25:26;15.67;;;6.87;;
6987;SDS011;3534;49.960;8.018;2023-07-08T06:27:53;17.27;;;7.17;;
6987;SDS011;3534;49.960;8.018;2023-07-08T06:30:21;15.13;;;7.57;;
6987;SDS011;3534;49.960;8.018;2023-07-08T06:32:48;11.80;;;7.40;;
6987;SDS011;3534;49.960;8.018;2023-07-08T06:35:16;11.67;;;7.03;;
6987;SDS011;3534;49.960;8.018;2023-07-08T06:37:42;14.17;;;6.70;;
6987;SDS011;3534;49.960;8.018;2023-07-08T06:40:09;12.00;;;6.77;;
6987;SDS011;3534;49.960;8.018;2023-07-08T06:42:37;12.67;;;5.90;;
6987;SDS011;3534;49.960;8.018;2023-07-08T06:45:04;13.17;;;6.70;;
6987;SDS011;3534;49.960;8.018;2023-07-08T06:47:32;16.03;;;5.77;;
6987;SDS011;3534;49.960;8.018;2023-07-08T06:49:59;11.30;;;5.93;;
6987;SDS011;3534;49.960;8.018;2023-07-08T06:52:25;10.90;;;6.23;;
6987;SDS011;3534;49.960;8.018;2023-07-08T06:54:52;10.60;;;6.57;;
6987;SDS011;3534;49.960;8.018;2023-07-08T06:57:19;8.50;;;5.80;;
6987;SDS011;3534;49.960;8.018;2023-07-08T06:59:45;9.20;;;5.40;;
6987;SDS011;3534;49.960;8.018;2023-07-08T07:02:12;7.53;;;5.33;;
6987;SDS011;3534;49.960;8.018;2023-07-08T07:04:40;9.17;;;5.63;;
6987;SDS011;3534;49.960;8.018;2023-07-08T07:07:07;12.73;;;4.90;;
6987;SDS011;3534;49.960;8.018;2023-07-08T07:09:33;8.97;;;4.83;;
6987;SDS011;3534;49.960;8.018;2023-07-08T07:12:00;7.90;;;5.13;;
6987;SDS011;3534;49.960;8.018;2023-07-08T07:14:27;9.80;;;5.97;;
6987;SDS011;3534;49.960;8.018;2023-07-08T07:16:54;10.87;;;5.63;;
6987;SDS011;3534;49.960;8.018;2023-07-08T07:19:20;16.47;;;5.50;;
6987;SDS011;3534;49.960;8.018;2023-07-08T07:21:48;8.37;;;5.07;;
6987;SDS011;3534;49.960;8.018;2023-07-08T07:24:15;8.97;;;5.37;;
6987;SDS011;3534;49.960;8.018;2023-07-08T07:26:42;10.17;;;5.60;;
6987;SDS011;3534;49.960;8.018;2023-07-08T07:29:09;10.63;;;6.23;;
6987;SDS011;3534;49.960;8.018;2023-07-08T07:31:36;9.70;;;6.27;;
6987;SDS011;3534;49.960;8.018;2023-07-08T07:34:04;11.20;;;6.20;;
6987;SDS011;3534;49.960;8.018;2023-07-08T07:36:31;10.97;;;6.80;;
6987;SDS011;3534;49.960;8.018;2023-07-08T07:38:59;9.83;;;6.03;;
6987;SDS011;3534;49.960;8.018;2023-07-08T07:41:26;11.00;;;5.77;;
6987;SDS011;3534;49.960;8.018;2023-07-08T07:43:53;9.27;;;6.50;;
6987;SDS011;3534;49.960;8.018;2023-07-08T07:46:20;14.93;;;5.90;;
6987;SDS011;3534;49.960;8.018;2023-07-08T07:48:47;12.97;;;6.70;;
6987;SDS011;3534;49.960;8.018;2023-07-08T07:51:14;11.87;;;6.30;;
6987;SDS011;3534;49.960;8.018;2023-07-08T07:53:40;13.23;;;6.90;;
6987;SDS011;3534;49.960;8.018;2023-07-08T07:56:08;17.70;;;6.27;;
6987;SDS011;3534;49.960;8.018;2023-07-08T07:58:35;10.93;;;5.97;;
6987;SDS011;3534;49.960;8.018;2023-07-08T08:01:02;10.33;;;6.10;;
6987;SDS011;3534;49.960;8.018;2023-07-08T08:03:28;15.40;;;7.27;;
6987;SDS011;3534;49.960;8.018;2023-07-08T08:05:56;18.87;;;6.30;;
6987;SDS011;3534;49.960;8.018;2023-07-08T08:08:22;13.43;;;7.33;;
6987;SDS011;3534;49.960;8.018;2023-07-08T08:10:49;16.60;;;6.70;;
6987;SDS011;3534;49.960;8.018;2023-07-08T08:13:17;11.53;;;6.70;;
6987;SDS011;3534;49.960;8.018;2023-07-08T08:15:44;9.83;;;7.20;;
6987;SDS011;3534;49.960;8.018;2023-07-08T08:18:10;15.00;;;6.10;;
6987;SDS011;3534;49.960;8.018;2023-07-08T08:20:37;10.20;;;5.70;;
6987;SDS011;3534;49.960;8.018;2023-07-08T08:23:04;11.07;;;5.70;;
6987;SDS011;3534;49.960;8.018;2023-07-08T08:25:32;7.67;;;5.40;;
6987;SDS011;3534;49.960;8.018;2023-07-08T08:27:59;12.70;;;6.33;;
6987;SDS011;3534;49.960;8.018;2023-07-08T08:30:27;15.97;;;6.13;;
6987;SDS011;3534;49.960;8.018;2023-07-08T08:32:53;12.40;;;6.40;;
6987;SDS011;3534;49.960;8.018;2023-07-08T08:35:20;10.37;;;5.60;;
6987;SDS011;3534;49.960;8.018;2023-07-08T08:37:47;12.20;;;5.93;;
6987;SDS011;3534;49.960;8.018;2023-07-08T08:40:14;12.43;;;6.10;;
6987;SDS011;3534;49.960;8.018;2023-07-08T08:42:43;10.90;;;6.07;;
6987;SDS011;3534;49.960;8.018;2023-07-08T08:45:15;8.90;;;5.70;;
6987;SDS011;3534;49.960;8.018;2023-07-08T08:47:47;8.90;;;5.63;;
6987;SDS011;3534;49.960;8.018;2023-07-08T08:50:24;11.27;;;6.13;;
6987;SDS011;3534;49.960;8.018;2023-07-08T08:52:57;9.07;;;6.40;;
6987;SDS011;3534;49.960;8.018;2023-07-08T08:55:27;10.57;;;5.90;;
6987;SDS011;3534;49.960;8.018;2023-07-08T08:57:57;15.90;;;6.00;;
6987;SDS011;3534;49.960;8.018;2023-07-08T09:00:33;11.23;;;6.03;;
6987;SDS011;3534;49.960;8.018;2023-07-08T09:03:10;12.20;;;6.40;;
6987;SDS011;3534;49.960;8.018;2023-07-08T09:05:41;10.13;;;5.73;;
6987;SDS011;3534;49.960;8.018;2023-07-08T09:08:10;9.93;;;5.47;;
6987;SDS011;3534;49.960;8.018;2023-07-08T09:10:42;7.97;;;5.57;;
6987;SDS011;3534;49.960;8.018;2023-07-08T09:13:14;8.63;;;5.50;;
6987;SDS011;3534;49.960;8.018;2023-07-08T09:15:47;13.27;;;6.33;;
6987;SDS011;3534;49.960;8.018;2023-07-08T09:18:20;9.10;;;5.43;;
6987;SDS011;3534;49.960;8.018;2023-07-08T09:20:58;9.03;;;6.20;;
6987;SDS011;3534;49.960;8.018;2023-07-08T09:23:32;11.73;;;6.20;;
6987;SDS011;3534;49.960;8.018;2023-07-08T09:26:02;14.17;;;5.50;;
6987;SDS011;3534;49.960;8.018;2023-07-08T09:28:36;12.80;;;6.50;;
6987;SDS011;3534;49.960;8.018;2023-07-08T09:31:05;8.63;;;6.00;;
6987;SDS011;3534;49.960;8.018;2023-07-08T09:33:37;8.60;;;5.70;;
6987;SDS011;3534;49.960;8.018;2023-07-08T09:36:15;9.13;;;5.70;;
6987;SDS011;3534;49.960;8.018;2023-07-08T09:38:46;9.83;;;5.53;;
6987;SDS011;3534;49.960;8.018;2023-07-08T09:41:13;9.60;;;5.97;;
6987;SDS011;3534;49.960;8.018;2023-07-08T09:43:43;9.77;;;6.17;;
6987;SDS011;3534;49.960;8.018;2023-07-08T09:46:11;8.40;;;6.37;;
6987;SDS011;3534;49.960;8.018;2023-07-08T09:48:41;10.30;;;5.40;;
6987;SDS011;3534;49.960;8.018;2023-07-08T09:51:08;10.00;;;6.10;;
6987;SDS011;3534;49.960;8.018;2023-07-08T09:53:38;7.77;;;5.77;;
6987;SDS011;3534;49.960;8.018;2023-07-08T09:56:06;9.67;;;5.80;;
6987;SDS011;3534;49.960;8.018;2023-07-08T09:58:35;8.23;;;5.97;;
6987;SDS011;3534;49.960;8.018;2023-07-08T10:01:09;6.87;;;5.53;;
6987;SDS011;3534;49.960;8.018;2023-07-08T10:03:37;9.93;;;5.83;;
6987;SDS011;3534;49.960;8.018;2023-07-08T10:06:06;7.60;;;5.20;;
6987;SDS011;3534;49.960;8.018;2023-07-08T10:08:43;11.87;;;6.10;;
6987;SDS011;3534;49.960;8.018;2023-07-08T10:11:12;9.00;;;5.40;;
6987;SDS011;3534;49.960;8.018;2023-07-08T10:13:52;7.83;;;5.70;;
6987;SDS011;3534;49.960;8.018;2023-07-08T10:16:23;9.43;;;6.17;;
6987;SDS011;3534;49.960;8.018;2023-07-08T10:18:52;9.43;;;7.27;;
6987;SDS011;3534;49.960;8.018;2023-07-08T10:21:26;8.80;;;5.50;;
6987;SDS011;3534;49.960;8.018;2023-07-08T10:24:01;11.00;;;5.50;;
6987;SDS011;3534;49.960;8.018;2023-07-08T10:26:43;11.03;;;6.40;;
6987;SDS011;3534;49.960;8.018;2023-07-08T10:29:13;13.50;;;6.43;;
6987;SDS011;3534;49.960;8.018;2023-07-08T10:31:53;9.67;;;5.47;;
6987;SDS011;3534;49.960;8.018;2023-07-08T10:34:36;8.03;;;5.63;;
6987;SDS011;3534;49.960;8.018;2023-07-08T10:37:10;11.97;;;5.70;;
6987;SDS011;3534;49.960;8.018;2023-07-08T10:39:53;12.93;;;6.20;;
6987;SDS011;3534;49.960;8.018;2023-07-08T10:42:32;11.60;;;6.27;;
6987;SDS011;3534;49.960;8.018;2023-07-08T10:45:08;14.97;;;6.90;;
6987;SDS011;3534;49.960;8.018;2023-07-08T10:47:42;12.73;;;6.13;;
6987;SDS011;3534;49.960;8.018;2023-07-08T10:50:28;7.97;;;5.60;;
6987;SDS011;3534;49.960;8.018;2023-07-08T10:53:09;12.57;;;6.13;;
6987;SDS011;3534;49.960;8.018;2023-07-08T10:55:49;11.30;;;6.43;;
6987;SDS011;3534;49.960;8.018;2023-07-08T10:58:25;15.27;;;7.73;;
6987;SDS011;3534;49.960;8.018;2023-07-08T11:01:06;8.63;;;5.83;;
6987;SDS011;3534;49.960;8.018;2023-07-08T11:06:34;8.60;;;5.90;;
6987;SDS011;3534;49.960;8.018;2023-07-08T11:09:09;12.20;;;6.87;;
6987;SDS011;3534;49.960;8.018;2023-07-08T11:11:40;26.80;;;15.50;;
6987;SDS011;3534;49.960;8.018;2023-07-08T11:14:14;11.97;;;8.30;;
6987;SDS011;3534;49.960;8.018;2023-07-08T11:16:45;14.23;;;11.20;;
6987;SDS011;3534;49.960;8.018;2023-07-08T11:19:18;17.07;;;11.60;;
6987;SDS011;3534;49.960;8.018;2023-07-08T11:21:50;26.13;;;12.30;;
6987;SDS011;3534;49.960;8.018;2023-07-08T11:24:23;18.80;;;11.10;;
6987;SDS011;3534;49.960;8.018;2023-07-08T11:26:56;17.03;;;10.10;;
6987;SDS011;3534;49.960;8.018;2023-07-08T11:29:29;16.10;;;8.40;;
6987;SDS011;3534;49.960;8.018;2023-07-08T11:32:02;12.17;;;8.00;;
6987;SDS011;3534;49.960;8.018;2023-07-08T11:34:31;9.33;;;8.00;;
6987;SDS011;3534;49.960;8.018;2023-07-08T11:36:59;16.03;;;8.53;;
6987;SDS011;3534;49.960;8.018;2023-07-08T11:39:31;16.60;;;7.97;;
6987;SDS011;3534;49.960;8.018;2023-07-08T11:42:03;10.87;;;6.50;;
6987;SDS011;3534;49.960;8.018;2023-07-08T11:44:40;16.33;;;7.00;;
6987;SDS011;3534;49.960;8.018;2023-07-08T11:47:11;8.37;;;6.10;;
6987;SDS011;3534;49.960;8.018;2023-07-08T11:49:41;12.47;;;7.00;;
6987;SDS011;3534;49.960;8.018;2023-07-08T11:52:08;11.40;;;6.10;;
6987;SDS011;3534;49.960;8.018;2023-07-08T11:54:44;10.33;;;6.40;;
6987;SDS011;3534;49.960;8.018;2023-07-08T11:57:16;13.40;;;7.00;;
6987;SDS011;3534;49.960;8.018;2023-07-08T11:59:44;10.93;;;6.10;;
6987;SDS011;3534;49.960;8.018;2023-07-08T12:02:13;13.53;;;6.57;;
6987;SDS011;3534;49.960;8.018;2023-07-08T12:04:55;8.07;;;5.60;;
6987;SDS011;3534;49.960;8.018;2023-07-08T12:07:30;11.70;;;7.30;;
6987;SDS011;3534;49.960;8.018;2023-07-08T12:10:00;9.23;;;6.77;;
6987;SDS011;3534;49.960;8.018;2023-07-08T12:12:31;14.80;;;6.87;;
6987;SDS011;3534;49.960;8.018;2023-07-08T12:15:07;13.23;;;6.70;;
6987;SDS011;3534;49.960;8.018;2023-07-08T12:17:38;11.53;;;7.10;;
6987;SDS011;3534;49.960;8.018;2023-07-08T12:20:06;9.30;;;6.20;;
6987;SDS011;3534;49.960;8.018;2023-07-08T12:22:43;7.70;;;5.93;;
6987;SDS011;3534;49.960;8.018;2023-07-08T12:25:12;16.83;;;7.07;;
6987;SDS011;3534;49.960;8.018;2023-07-08T12:27:41;12.40;;;5.67;;
6987;SDS011;3534;49.960;8.018;2023-07-08T12:30:08;16.43;;;6.17;;
6987;SDS011;3534;49.960;8.018;2023-07-08T12:32:36;9.93;;;6.63;;
6987;SDS011;3534;49.960;8.018;2023-07-08T12:35:03;20.80;;;6.70;;
6987;SDS011;3534;49.960;8.018;2023-07-08T12:37:31;10.98;;;5.85;;
6987;SDS011;3534;49.960;8.018;2023-07-08T12:39:58;8.25;;;6.07;;
6987;SDS011;3534;49.960;8.018;2023-07-08T12:42:30;8.65;;;6.10;;
6987;SDS011;3534;49.960;8.018;2023-07-08T12:44:57;9.15;;;6.13;;
6987;SDS011;3534;49.960;8.018;2023-07-08T12:47:23;15.93;;;6.18;;
6987;SDS011;3534;49.960;8.018;2023-07-08T12:49:50;10.10;;;6.22;;
6987;SDS011;3534;49.960;8.018;2023-07-08T12:52:19;8.82;;;6.22;;
6987;SDS011;3534;49.960;8.018;2023-07-08T12:54:47;8.50;;;5.50;;
6987;SDS011;3534;49.960;8.018;2023-07-08T12:57:14;11.80;;;6.78;;
6987;SDS011;3534;49.960;8.018;2023-07-08T12:59:42;7.57;;;5.50;;
6987;SDS011;3534;49.960;8.018;2023-07-08T13:02:12;15.15;;;6.72;;
6987;SDS011;3534;49.960;8.018;2023-07-08T13:04:43;8.13;;;6.30;;
6987;SDS011;3534;49.960;8.018;2023-07-08T13:07:13;11.50;;;6.15;;
6987;SDS011;3534;49.960;8.018;2023-07-08T13:09:48;11.18;;;5.80;;
6987;SDS011;3534;49.960;8.018;2023-07-08T13:12:16;7.95;;;5.20;;
6987;SDS011;3534;49.960;8.018;2023-07-08T13:14:48;7.25;;;5.20;;
6987;SDS011;3534;49.960;8.018;2023-07-08T13:17:17;9.20;;;5.43;;
6987;SDS011;3534;49.960;8.018;2023-07-08T13:19:44;10.32;;;6.13;;
6987;SDS011;3534;49.960;8.018;2023-07-08T13:22:12;6.70;;;5.57;;
6987;SDS011;3534;49.960;8.018;2023-07-08T13:24:43;10.13;;;5.97;;
6987;SDS011;3534;49.960;8.018;2023-07-08T13:27:13;11.27;;;6.10;;
6987;SDS011;3534;49.960;8.018;2023-07-08T13:29:52;8.65;;;5.88;;
6987;SDS011;3534;49.960;8.018;2023-07-08T13:32:19;12.30;;;6.13;;
6987;SDS011;3534;49.960;8.018;2023-07-08T13:34:48;10.65;;;5.63;;
6987;SDS011;3534;49.960;8.018;2023-07-08T13:37:15;9.02;;;5.55;;
6987;SDS011;3534;49.960;8.018;2023-07-08T13:39:43;8.30;;;5.20;;
6987;SDS011;3534;49.960;8.018;2023-07-08T13:42:11;7.82;;;5.25;;
6987;SDS011;3534;49.960;8.018;2023-07-08T13:44:42;11.27;;;5.20;;
6987;SDS011;3534;49.960;8.018;2023-07-08T13:47:22;6.55;;;5.32;;
6987;SDS011;3534;49.960;8.018;2023-07-08T13:49:54;9.48;;;5.57;;
6987;SDS011;3534;49.960;8.018;2023-07-08T13:52:25;7.32;;;4.60;;
6987;SDS011;3534;49.960;8.018;2023-07-08T13:54:53;8.38;;;5.28;;
6987;SDS011;3534;49.960;8.018;2023-07-08T13:57:24;11.50;;;5.53;;
6987;SDS011;3534;49.960;8.018;2023-07-08T13:59:57;5.97;;;5.03;;
6987;SDS011;3534;49.960;8.018;2023-07-08T14:02:25;7.00;;;4.55;;
6987;SDS011;3534;49.960;8.018;2023-07-08T14:04:54;8.55;;;5.47;;
6987;SDS011;3534;49.960;8.018;2023-07-08T14:07:24;10.15;;;5.47;;
6987;SDS011;3534;49.960;8.018;2023-07-08T14:09:52;8.20;;;5.50;;
6987;SDS011;3534;49.960;8.018;2023-07-08T14:12:19;8.63;;;5.45;;
6987;SDS011;3534;49.960;8.018;2023-07-08T14:14:46;7.60;;;5.10;;
6987;SDS011;3534;49.960;8.018;2023-07-08T14:17:13;11.80;;;5.47;;
6987;SDS011;3534;49.960;8.018;2023-07-08T14:19:46;7.63;;;5.10;;
6987;SDS011;3534;49.960;8.018;2023-07-08T14:22:20;11.68;;;5.05;;
6987;SDS011;3534;49.960;8.018;2023-07-08T14:24:49;6.15;;;4.22;;
6987;SDS011;3534;49.960;8.018;2023-07-08T14:27:16;8.40;;;5.47;;
6987;SDS011;3534;49.960;8.018;2023-07-08T14:29:43;7.53;;;4.90;;
6987;SDS011;3534;49.960;8.018;2023-07-08T14:32:12;8.73;;;5.03;;
6987;SDS011;3534;49.960;8.018;2023-07-08T14:34:40;6.40;;;4.30;;
6987;SDS011;3534;49.960;8.018;2023-07-08T14:37:10;6.68;;;4.13;;
6987;SDS011;3534;49.960;8.018;2023-07-08T14:39:39;7.00;;;5.03;;
6987;SDS011;3534;49.960;8.018;2023-07-08T14:42:07;8.95;;;5.25;;
6987;SDS011;3534;49.960;8.018;2023-07-08T14:44:36;9.65;;;4.78;;
6987;SDS011;3534;49.960;8.018;2023-07-08T14:47:04;6.72;;;5.00;;
6987;SDS011;3534;49.960;8.018;2023-07-08T14:49:34;9.23;;;4.95;;
6987;SDS011;3534;49.960;8.018;2023-07-08T14:52:01;8.85;;;5.15;;
6987;SDS011;3534;49.960;8.018;2023-07-08T14:54:29;7.18;;;4.57;;
6987;SDS011;3534;49.960;8.018;2023-07-08T14:56:56;7.85;;;4.85;;
6987;SDS011;3534;49.960;8.018;2023-07-08T14:59:23;7.78;;;4.50;;
6987;SDS011;3534;49.960;8.018;2023-07-08T15:01:52;8.57;;;4.95;;
6987;SDS011;3534;49.960;8.018;2023-07-08T15:04:21;13.95;;;5.32;;
6987;SDS011;3534;49.960;8.018;2023-07-08T15:06:48;6.60;;;4.10;;
6987;SDS011;3534;49.960;8.018;2023-07-08T15:09:15;8.15;;;4.70;;
6987;SDS011;3534;49.960;8.018;2023-07-08T15:11:44;6.38;;;4.32;;
6987;SDS011;3534;49.960;8.018;2023-07-08T15:14:13;8.15;;;5.45;;
6987;SDS011;3534;49.960;8.018;2023-07-08T15:16:44;6.22;;;4.50;;
6987;SDS011;3534;49.960;8.018;2023-07-08T15:19:11;5.93;;;4.80;;
6987;SDS011;3534;49.960;8.018;2023-07-08T15:21:38;10.05;;;5.18;;